Loncura — CA2818 — position and weather

sailwx.info

Track history (hours):
 
Tides and Currents Weather Stations Pressure Air Temp Water Temp Dewpoint Dewpoint Depression Visibility Wind Speed Wind Dir Waves Ship Positions

Loncura

Last reported at 2018-Jun-24 17:34 UTC. Time now 2018-Jun-24 18:55 UTC.
Position S 32°46' W 071°31'.

Length 32 m; draft 5.2 m.

Type: Tug. MMSI: 725000695.

Date/timePositionNaut miles runAvg speedWind from/ knotsBaromVisibWave heightAir tempDewpointWater temp
2018-Jun-24 17:34S 32°46' W 071°31'0 0.0
2018-Jun-24 17:25S 32°46' W 071°31'0 0.0
2018-Jun-24 05:31S 32°46' W 071°31'0 0.1
2018-Jun-24 03:59S 32°46' W 071°31'0 0.0
2018-Jun-23 13:01S 32°46' W 071°31'0 0.0
2018-Jun-23 12:58S 32°46' W 071°31'0 0.0
2018-Jun-23 03:34S 32°46' W 071°31'0 0.0
2018-Jun-23 03:19S 32°46' W 071°31'0 0.0
2018-Jun-23 02:28S 32°46' W 071°31'0 0.0
2018-Jun-22 22:40S 32°46' W 071°31'0 0.0
2018-Jun-22 22:28S 32°46' W 071°31'0 0.0
2018-Jun-22 21:40S 32°46' W 071°31'0 0.0
2018-Jun-22 21:19S 32°46' W 071°31'0 0.0
2018-Jun-22 20:43S 32°46' W 071°31'0 0.0
2018-Jun-22 20:28S 32°46' W 071°31'0 0.0
2018-Jun-22 19:58S 32°46' W 071°31'0 0.0
2018-Jun-22 19:10S 32°46' W 071°31'0 0.0
2018-Jun-22 18:58S 32°46' W 071°31'0 0.0
2018-Jun-22 04:54S 32°46' W 071°31'5 6.5
2018-Jun-22 04:05S 32°51' W 071°35'1 9.6
2018-Jun-22 04:00S 32°52' W 071°35'5 9.7
2018-Jun-22 03:30S 32°57' W 071°36'5 9.6
2018-Jun-22 03:00S 33°01' W 071°36'3 0.3
2018-Jun-21 17:24S 32°58' W 071°36'4 9.1
2018-Jun-21 17:00S 32°54' W 071°35'5 9.1
2018-Jun-21 16:30S 32°50' W 071°34'4 1.1
2018-Jun-21 12:37S 32°46' W 071°31'0 0.0
2018-Jun-21 12:07S 32°46' W 071°31'0 0.0
2018-Jun-21 11:58S 32°46' W 071°31'0 0.0
2018-Jun-21 11:28S 32°46' W 071°31'0 0.0
2018-Jun-21 10:58S 32°46' W 071°31'0 0.0
2018-Jun-21 08:43S 32°46' W 071°31'0 0.0
2018-Jun-21 08:13S 32°46' W 071°31'0 0.0
2018-Jun-21 07:46S 32°46' W 071°31'0 0.0
2018-Jun-21 07:13S 32°46' W 071°31'0 0.0
2018-Jun-21 06:46S 32°46' W 071°31'0 0.0
2018-Jun-20 00:04S 32°46' W 071°31'0 0.0
2018-Jun-19 22:38S 32°46' W 071°31'1 0.0
2018-Jun-18 20:54S 32°46' W 071°31'1 0.2
2018-Jun-18 18:12S 32°46' W 071°31'0 0.0
2018-Jun-18 17:51S 32°46' W 071°31'0 0.0
2018-Jun-18 17:27S 32°46' W 071°31'0 0.0
2018-Jun-18 17:00S 32°46' W 071°31'0 0.0
2018-Jun-18 12:15S 32°46' W 071°31'0 0.0
2018-Jun-18 12:00S 32°46' W 071°31'0 0.0
2018-Jun-18 11:24S 32°46' W 071°31'0 0.0
2018-Jun-18 10:54S 32°46' W 071°31'0 0.0
2018-Jun-18 10:21S 32°46' W 071°31'0 0.0
2018-Jun-18 10:00S 32°46' W 071°31'0 0.0
2018-Jun-18 09:30S 32°46' W 071°31'0 0.0
2018-Jun-18 08:57S 32°46' W 071°31'0 0.0
2018-Jun-18 07:39S 32°46' W 071°31'0 0.0
2018-Jun-18 05:33S 32°46' W 071°31'0 0.0
2018-Jun-18 05:03S 32°46' W 071°31'0 0.0
2018-Jun-18 04:06S 32°46' W 071°31'0 0.0
2018-Jun-18 04:00S 32°46' W 071°31'0 0.0
2018-Jun-18 03:30S 32°46' W 071°31'0 0.0
2018-Jun-18 02:57S 32°46' W 071°31'0 0.0
2018-Jun-18 02:27S 32°46' W 071°31'0 0.0
2018-Jun-18 01:57S 32°46' W 071°31'0 0.0
2018-Jun-18 01:24S 32°46' W 071°31'0 0.0
2018-Jun-18 01:00S 32°46' W 071°31'0 0.0
2018-Jun-17 17:51S 32°46' W 071°31'0 0.0
2018-Jun-17 17:24S 32°46' W 071°31'0 0.0
2018-Jun-17 16:00S 32°46' W 071°31'0 0.0
2018-Jun-17 13:48S 32°46' W 071°31'0 0.0
2018-Jun-17 13:21S 32°46' W 071°31'0 0.0
2018-Jun-17 04:12S 32°46' W 071°31'0 0.0
2018-Jun-17 03:57S 32°46' W 071°31'1 0.1
2018-Jun-16 20:51S 32°46' W 071°31'1 1.8
2018-Jun-16 20:29S 32°45' W 071°31'1 0.7
2018-Jun-16 19:10S 32°46' W 071°30'1 0.1
2018-Jun-16 05:37S 32°46' W 071°31'0 0.0
2018-Jun-16 05:28S 32°46' W 071°31'0 0.0
2018-Jun-16 02:46S 32°46' W 071°31'0 0.0
2018-Jun-15 22:37S 32°46' W 071°31'0 0.0
2018-Jun-15 22:24S 32°46' W 071°31'0 0.5
2018-Jun-15 21:52S 32°47' W 071°32'0 0.0
2018-Jun-15 21:30S 32°47' W 071°32'  
Track history (hours):
 
Tides and Currents Weather Stations Pressure Air Temp Water Temp Dewpoint Dewpoint Depression Visibility Wind Speed Wind Dir Waves Ship Positions

Loncura

Last reported at 2018-Jun-24 17:34 UTC. Time now 2018-Jun-24 18:55 UTC.
Position S 32°46' W 071°31'.

Length 32 m; draft 5.2 m.

Type: Tug. MMSI: 725000695.

Date/timePositionNaut miles runAvg speedWind from/ knotsBaromVisibWave heightAir tempDewpointWater temp
2018-Jun-24 17:34S 32°46' W 071°31'0 0.0
2018-Jun-24 17:25S 32°46' W 071°31'0 0.0
2018-Jun-24 05:31S 32°46' W 071°31'0 0.1
2018-Jun-24 03:59S 32°46' W 071°31'0 0.0
2018-Jun-23 13:01S 32°46' W 071°31'0 0.0
2018-Jun-23 12:58S 32°46' W 071°31'0 0.0
2018-Jun-23 03:34S 32°46' W 071°31'0 0.0
2018-Jun-23 03:19S 32°46' W 071°31'0 0.0
2018-Jun-23 02:28S 32°46' W 071°31'0 0.0
2018-Jun-22 22:40S 32°46' W 071°31'0 0.0
2018-Jun-22 22:28S 32°46' W 071°31'0 0.0
2018-Jun-22 21:40S 32°46' W 071°31'0 0.0
2018-Jun-22 21:19S 32°46' W 071°31'0 0.0
2018-Jun-22 20:43S 32°46' W 071°31'0 0.0
2018-Jun-22 20:28S 32°46' W 071°31'0 0.0
2018-Jun-22 19:58S 32°46' W 071°31'0 0.0
2018-Jun-22 19:10S 32°46' W 071°31'0 0.0
2018-Jun-22 18:58S 32°46' W 071°31'0 0.0
2018-Jun-22 04:54S 32°46' W 071°31'5 6.5
2018-Jun-22 04:05S 32°51' W 071°35'1 9.6
2018-Jun-22 04:00S 32°52' W 071°35'5 9.7
2018-Jun-22 03:30S 32°57' W 071°36'5 9.6
2018-Jun-22 03:00S 33°01' W 071°36'3 0.3
2018-Jun-21 17:24S 32°58' W 071°36'4 9.1
2018-Jun-21 17:00S 32°54' W 071°35'5 9.1
2018-Jun-21 16:30S 32°50' W 071°34'4 1.1
2018-Jun-21 12:37S 32°46' W 071°31'0 0.0
2018-Jun-21 12:07S 32°46' W 071°31'0 0.0
2018-Jun-21 11:58S 32°46' W 071°31'0 0.0
2018-Jun-21 11:28S 32°46' W 071°31'0 0.0
2018-Jun-21 10:58S 32°46' W 071°31'0 0.0
2018-Jun-21 08:43S 32°46' W 071°31'0 0.0
2018-Jun-21 08:13S 32°46' W 071°31'0 0.0
2018-Jun-21 07:46S 32°46' W 071°31'0 0.0
2018-Jun-21 07:13S 32°46' W 071°31'0 0.0
2018-Jun-21 06:46S 32°46' W 071°31'0 0.0
2018-Jun-20 00:04S 32°46' W 071°31'0 0.0
2018-Jun-19 22:38S 32°46' W 071°31'1 0.0
2018-Jun-18 20:54S 32°46' W 071°31'1 0.2
2018-Jun-18 18:12S 32°46' W 071°31'0 0.0
2018-Jun-18 17:51S 32°46' W 071°31'0 0.0
2018-Jun-18 17:27S 32°46' W 071°31'0 0.0
2018-Jun-18 17:00S 32°46' W 071°31'0 0.0
2018-Jun-18 12:15S 32°46' W 071°31'0 0.0
2018-Jun-18 12:00S 32°46' W 071°31'0 0.0
2018-Jun-18 11:24S 32°46' W 071°31'0 0.0
2018-Jun-18 10:54S 32°46' W 071°31'0 0.0
2018-Jun-18 10:21S 32°46' W 071°31'0 0.0
2018-Jun-18 10:00S 32°46' W 071°31'0 0.0
2018-Jun-18 09:30S 32°46' W 071°31'0 0.0
2018-Jun-18 08:57S 32°46' W 071°31'0 0.0
2018-Jun-18 07:39S 32°46' W 071°31'0 0.0
2018-Jun-18 05:33S 32°46' W 071°31'0 0.0
2018-Jun-18 05:03S 32°46' W 071°31'0 0.0
2018-Jun-18 04:06S 32°46' W 071°31'0 0.0
2018-Jun-18 04:00S 32°46' W 071°31'0 0.0
2018-Jun-18 03:30S 32°46' W 071°31'0 0.0
2018-Jun-18 02:57S 32°46' W 071°31'0 0.0
2018-Jun-18 02:27S 32°46' W 071°31'0 0.0
2018-Jun-18 01:57S 32°46' W 071°31'0 0.0
2018-Jun-18 01:24S 32°46' W 071°31'0 0.0
2018-Jun-18 01:00S 32°46' W 071°31'0 0.0
2018-Jun-17 17:51S 32°46' W 071°31'0 0.0
2018-Jun-17 17:24S 32°46' W 071°31'0 0.0
2018-Jun-17 16:00S 32°46' W 071°31'0 0.0
2018-Jun-17 13:48S 32°46' W 071°31'0 0.0
2018-Jun-17 13:21S 32°46' W 071°31'0 0.0
2018-Jun-17 04:12S 32°46' W 071°31'0 0.0
2018-Jun-17 03:57S 32°46' W 071°31'1 0.1
2018-Jun-16 20:51S 32°46' W 071°31'1 1.8
2018-Jun-16 20:29S 32°45' W 071°31'1 0.7
2018-Jun-16 19:10S 32°46' W 071°30'1 0.1
2018-Jun-16 05:37S 32°46' W 071°31'0 0.0
2018-Jun-16 05:28S 32°46' W 071°31'0 0.0
2018-Jun-16 02:46S 32°46' W 071°31'0 0.0
2018-Jun-15 22:37S 32°46' W 071°31'0 0.0
2018-Jun-15 22:24S 32°46' W 071°31'0 0.5
2018-Jun-15 21:52S 32°47' W 071°32'0 0.0
2018-Jun-15 21:30S 32°47' W 071°32'  

Dump ship's entire track history